Aviation Digital Data Service (ADDS)

Output produced by METARs form (1631 UTC 20 December 2014)
found at http://aviationweather.gov/adds/metars/
 
KAEX 201553Z 02007KT 350V060 10SM OVC009 09/07 A3022 RMK AO2 RAE32 CIG 008V014 SLP240 P0000 T00890067